Time;durP1;ratioP1;P1;durP2;ratioP2;P2;SDS_P1;SDS_P2;PMS_P1;PMS_P2;Temp;Humidity;BMP_temperature;BMP_pressure;BME280_temperature;BME280_humidity;BME280_pressure;Samples;Min_cycle;Max_cycle;Signal;HPM_P1;HPM_P2
2022/02/08 00:00:03;;;;;;;7.17;2.13;;;9.80;99.90;;;;;;6256497;22;20206;-93
2022/02/08 00:02:42;;;;;;;7.17;1.53;;;9.70;99.90;;;;;;6270511;23;20187;-94
2022/02/08 00:05:15;;;;;;;5.73;1.67;;;9.70;99.90;;;;;;6268409;23;20200;-93
2022/02/08 00:07:50;;;;;;;5.30;1.63;;;9.60;99.90;;;;;;6240718;23;20513;-93
2022/02/08 00:10:23;;;;;;;5.70;2.03;;;9.60;99.90;;;;;;6265623;23;20676;-94
2022/02/08 00:12:57;;;;;;;4.87;1.67;;;9.60;99.90;;;;;;6239384;23;20174;-94
2022/02/08 00:15:29;;;;;;;8.60;1.60;;;9.50;99.90;;;;;;6266803;23;20244;-94
2022/02/08 00:18:04;;;;;;;4.90;1.37;;;9.60;99.90;;;;;;6263411;23;20168;-94
2022/02/08 00:20:36;;;;;;;5.00;1.60;;;9.60;99.90;;;;;;6266709;23;20176;-93
2022/02/08 00:23:07;;;;;;;7.20;1.97;;;9.60;99.90;;;;;;6266674;23;20168;-95
2022/02/08 00:25:40;;;;;;;6.00;1.77;;;9.50;99.90;;;;;;6267266;23;20210;-94
2022/02/08 00:28:12;;;;;;;7.23;1.40;;;9.50;99.90;;;;;;6265206;23;20194;-94
2022/02/08 00:30:44;;;;;;;5.87;1.73;;;9.50;99.90;;;;;;6268025;23;20171;-93
2022/02/08 00:33:18;;;;;;;7.80;2.03;;;9.50;99.90;;;;;;6241376;23;20191;-94
2022/02/08 00:35:50;;;;;;;7.63;1.63;;;9.60;99.90;;;;;;6268548;22;20170;-93
2022/02/08 00:38:23;;;;;;;5.23;1.50;;;9.60;99.90;;;;;;6268570;23;20163;-93
2022/02/08 00:40:59;;;;;;;8.73;1.60;;;9.60;99.90;;;;;;6271200;23;20174;-94
2022/02/08 00:43:35;;;;;;;9.30;1.53;;;9.70;99.90;;;;;;6245924;23;20163;-93
2022/02/08 00:46:12;;;;;;;6.50;1.37;;;9.70;99.90;;;;;;6273069;22;20186;-93
2022/02/08 00:48:54;;;;;;;6.30;1.37;;;9.70;99.90;;;;;;6272879;22;20175;-94
2022/02/08 00:51:28;;;;;;;5.87;1.30;;;9.70;99.90;;;;;;6237230;22;20200;-92
2022/02/08 00:54:00;;;;;;;5.63;1.23;;;9.70;99.90;;;;;;6242802;22;20194;-92
2022/02/08 00:56:31;;;;;;;8.63;1.67;;;9.70;99.90;;;;;;6242486;22;20160;-93
2022/02/08 00:59:03;;;;;;;6.33;0.90;;;9.70;99.90;;;;;;6242236;22;20180;-94
2022/02/08 01:01:37;;;;;;;8.87;1.40;;;9.70;99.90;;;;;;6242484;22;20157;-92
2022/02/08 01:04:12;;;;;;;5.43;1.33;;;9.70;99.90;;;;;;6240190;22;20207;-93
2022/02/08 01:06:43;;;;;;;8.07;1.67;;;9.60;99.90;;;;;;6239059;22;20155;-92
2022/02/08 01:09:17;;;;;;;5.07;1.40;;;9.60;99.90;;;;;;6238495;23;20180;-94
2022/02/08 01:11:52;;;;;;;7.43;1.37;;;9.60;99.90;;;;;;6240234;23;20191;-90
2022/02/08 01:14:24;;;;;;;7.70;1.57;;;9.50;99.90;;;;;;6243117;23;20168;-93
2022/02/08 01:16:55;;;;;;;4.23;1.20;;;9.50;99.90;;;;;;6243797;23;20199;-93
2022/02/08 01:19:33;;;;;;;8.20;1.77;;;9.40;99.90;;;;;;6234294;23;20232;-91
2022/02/08 01:22:04;;;;;;;6.63;1.60;;;9.50;99.90;;;;;;6224975;23;20195;-92
2022/02/08 01:24:35;;;;;;;5.60;1.47;;;9.40;99.90;;;;;;6225135;23;20231;-93
2022/02/08 01:27:14;;;;;;;5.70;1.80;;;9.40;99.90;;;;;;6239909;23;20251;-92
2022/02/08 01:29:58;;;;;;;7.27;1.50;;;9.30;99.90;;;;;;6237421;23;20182;-93
2022/02/08 01:38:15;;;;;;;6.63;1.60;;;9.30;99.90;;;;;;6238423;23;20180;-94
2022/02/08 01:41:07;;;;;;;7.27;1.60;;;9.30;99.90;;;;;;6239825;23;20183;-93
2022/02/08 01:44:05;;;;;;;8.40;2.00;;;9.30;99.90;;;;;;6238549;23;20214;-93
2022/02/08 01:46:48;;;;;;;7.67;1.53;;;9.30;99.90;;;;;;6236231;23;20176;-94
2022/02/08 01:49:35;;;;;;;10.83;2.07;;;9.30;99.90;;;;;;6238541;23;20176;-92
2022/02/08 01:52:09;;;;;;;7.17;1.57;;;9.30;99.90;;;;;;6260312;23;20210;-93
2022/02/08 01:54:41;;;;;;;5.73;1.67;;;9.30;99.90;;;;;;6268617;23;20167;-93
2022/02/08 01:57:15;;;;;;;9.77;1.77;;;9.20;99.90;;;;;;6266108;23;20168;-93
2022/02/08 01:59:46;;;;;;;8.97;2.17;;;9.20;99.90;;;;;;6264745;23;20223;-92
2022/02/08 02:02:17;;;;;;;9.27;1.93;;;9.20;99.90;;;;;;6260300;23;20190;-92
2022/02/08 02:04:49;;;;;;;10.27;2.10;;;9.20;99.90;;;;;;6263804;23;20203;-92
2022/02/08 02:07:23;;;;;;;8.07;1.77;;;9.20;99.90;;;;;;6263472;23;20182;-92
2022/02/08 02:09:55;;;;;;;6.10;2.53;;;9.20;99.90;;;;;;6268321;23;20214;-93
2022/02/08 02:12:29;;;;;;;7.00;2.00;;;9.20;99.90;;;;;;6272877;22;20167;-94
2022/02/08 02:15:03;;;;;;;7.77;2.50;;;9.20;99.90;;;;;;6272163;22;20179;-93
2022/02/08 02:17:34;;;;;;;9.47;2.00;;;9.20;99.90;;;;;;6271642;23;20167;-93
2022/02/08 02:20:06;;;;;;;6.00;2.00;;;9.20;99.90;;;;;;6271199;23;20178;-94
2022/02/08 02:22:39;;;;;;;9.33;2.20;;;9.20;99.90;;;;;;6272409;22;20191;-91
2022/02/08 02:25:25;;;;;;;5.00;1.47;;;9.10;99.90;;;;;;6269830;23;20187;-93
2022/02/08 02:28:01;;;;;;;6.63;1.90;;;9.20;99.90;;;;;;6267891;23;20168;-93
2022/02/08 02:30:34;;;;;;;9.83;2.07;;;9.10;99.90;;;;;;6267500;23;20168;-94
2022/02/08 02:33:07;;;;;;;8.33;2.77;;;9.10;99.90;;;;;;6267730;23;20168;-94
2022/02/08 02:35:41;;;;;;;6.57;2.27;;;9.10;99.90;;;;;;6268546;23;20218;-93
2022/02/08 02:38:14;;;;;;;8.40;1.93;;;9.10;99.90;;;;;;6268926;23;20202;-93
2022/02/08 02:40:49;;;;;;;5.43;1.63;;;9.00;99.90;;;;;;6263166;22;20199;-93
2022/02/08 02:43:20;;;;;;;7.47;1.77;;;9.00;99.90;;;;;;6268912;22;20217;-93
2022/02/08 02:45:52;;;;;;;11.13;2.20;;;9.00;99.90;;;;;;6244887;23;20183;-93
2022/02/08 02:48:24;;;;;;;10.23;2.67;;;8.90;99.90;;;;;;6272753;22;20210;-92
2022/02/08 02:50:55;;;;;;;7.83;2.40;;;9.00;99.90;;;;;;6273878;22;20179;-92
2022/02/08 02:53:28;;;;;;;7.43;2.30;;;8.90;99.90;;;;;;6248270;23;20179;-91
2022/02/08 02:58:43;;;;;;;14.27;2.83;;;8.90;99.90;;;;;;6213848;22;20207;-92
2022/02/08 03:04:04;;;;;;;9.53;2.23;;;8.90;99.90;;;;;;6241053;22;20199;-93
2022/02/08 03:21:04;;;;;;;14.83;3.03;;;8.50;99.90;;;;;;6180737;23;20187;-92
2022/02/08 03:23:36;;;;;;;8.77;2.47;;;8.40;99.90;;;;;;6180440;23;20178;-94
2022/02/08 03:26:10;;;;;;;12.73;2.77;;;8.30;99.90;;;;;;6178386;23;20219;-93
2022/02/08 03:28:42;;;;;;;10.73;2.37;;;8.30;99.90;;;;;;6178294;23;20177;-93
2022/02/08 03:33:57;;;;;;;13.50;2.77;;;8.10;99.90;;;;;;6259081;22;20226;-94
2022/02/08 03:36:30;;;;;;;11.27;2.27;;;8.10;99.90;;;;;;6269608;23;20171;-96
2022/02/08 03:39:13;;;;;;;8.47;2.73;;;8.10;99.90;;;;;;6269751;23;20199;-93
2022/02/08 03:41:48;;;;;;;15.97;2.90;;;8.10;99.90;;;;;;6269728;23;20226;-93
2022/02/08 03:44:30;;;;;;;11.50;2.67;;;8.10;99.90;;;;;;6271736;22;20175;-93
2022/02/08 03:49:40;;;;;;;14.90;3.33;;;8.10;99.90;;;;;;6232791;22;20213;-93
2022/02/08 03:52:12;;;;;;;11.13;2.77;;;8.10;99.90;;;;;;6246890;23;20182;-90
2022/02/08 03:54:44;;;;;;;10.53;2.57;;;8.10;99.90;;;;;;6270431;22;20168;-93
2022/02/08 03:57:16;;;;;;;11.50;2.43;;;8.10;99.90;;;;;;6271318;22;20167;-93
2022/02/08 03:59:48;;;;;;;9.47;3.03;;;8.10;99.90;;;;;;6270725;23;20171;-92
2022/02/08 04:05:18;;;;;;;8.83;2.23;;;8.10;99.90;;;;;;6270437;23;20183;-94
2022/02/08 04:07:56;;;;;;;9.17;3.00;;;8.10;99.90;;;;;;6246989;23;20164;-94
2022/02/08 04:10:31;;;;;;;8.67;2.30;;;8.10;99.90;;;;;;6271098;22;20171;-93
2022/02/08 04:13:11;;;;;;;13.43;3.07;;;8.00;99.90;;;;;;6271220;23;20490;-90
2022/02/08 04:15:58;;;;;;;12.17;3.43;;;8.00;99.90;;;;;;6271592;22;20227;-93
2022/02/08 04:18:45;;;;;;;8.73;2.40;;;7.90;99.90;;;;;;6265672;23;20160;-92
2022/02/08 04:46:10;;;;;;;12.67;2.90;;;7.50;99.90;;;;;;6212254;23;20180;-94
2022/02/08 04:51:32;;;;;;;9.40;2.23;;;7.50;99.90;;;;;;6212226;23;20164;-92
2022/02/08 04:54:12;;;;;;;11.70;2.47;;;7.50;99.90;;;;;;6215590;23;20153;-89
2022/02/08 04:56:59;;;;;;;10.10;2.67;;;7.50;99.90;;;;;;6215325;23;20188;-92
2022/02/08 04:59:54;;;;;;;10.53;2.30;;;7.50;99.90;;;;;;6215791;23;20179;-93
2022/02/08 05:36:45;;;;;;;12.67;2.27;;;7.20;99.90;;;;;;6093004;23;20178;-92
2022/02/08 05:42:10;;;;;;;10.03;2.07;;;7.10;99.90;;;;;;6206126;23;20210;-93
2022/02/08 05:44:43;;;;;;;14.07;2.37;;;7.10;99.90;;;;;;6198424;23;20177;-91
2022/02/08 05:47:14;;;;;;;10.63;2.10;;;7.10;99.90;;;;;;6199950;23;20268;-94
2022/02/08 05:49:52;;;;;;;9.00;2.47;;;7.00;99.90;;;;;;6204102;23;20654;-93
2022/02/08 05:52:44;;;;;;;9.20;2.33;;;7.00;99.90;;;;;;6200152;23;20220;-93
2022/02/08 05:55:15;;;;;;;9.27;2.20;;;7.00;99.90;;;;;;6195741;23;20714;-92
2022/02/08 05:57:50;;;;;;;9.13;2.10;;;7.00;99.90;;;;;;6167819;23;20251;-92
2022/02/08 06:00:26;;;;;;;9.47;2.40;;;7.00;99.90;;;;;;6196552;23;20177;-93
2022/02/08 06:03:01;;;;;;;11.27;2.40;;;7.00;99.90;;;;;;6193547;23;20227;-93
2022/02/08 06:05:34;;;;;;;14.50;2.70;;;6.90;99.90;;;;;;6193659;23;20623;-93
2022/02/08 06:08:06;;;;;;;11.67;2.20;;;6.90;99.90;;;;;;6167423;23;20173;-93
2022/02/08 06:10:46;;;;;;;12.17;2.17;;;7.00;99.90;;;;;;6193194;23;20165;-92
2022/02/08 06:13:18;;;;;;;10.63;2.37;;;6.90;99.90;;;;;;6201971;23;20199;-93
2022/02/08 06:15:51;;;;;;;11.87;2.33;;;6.90;99.90;;;;;;6204854;23;20201;-91
2022/02/08 06:18:23;;;;;;;7.57;1.87;;;6.90;99.90;;;;;;6205431;23;20206;-93
2022/02/08 06:20:55;;;;;;;9.40;2.20;;;6.90;99.90;;;;;;6200960;23;20178;-93
2022/02/08 06:23:27;;;;;;;12.70;2.93;;;6.90;99.90;;;;;;6204054;23;20223;-91
2022/02/08 06:25:59;;;;;;;9.97;2.43;;;6.90;99.90;;;;;;6206024;23;20193;-93
2022/02/08 06:28:30;;;;;;;7.20;1.90;;;6.80;99.90;;;;;;6174021;23;20181;-93
2022/02/08 06:31:01;;;;;;;12.37;2.60;;;6.80;99.90;;;;;;6205489;23;20178;-92
2022/02/08 06:33:32;;;;;;;13.57;2.53;;;6.80;99.90;;;;;;6199923;23;20166;-93
2022/02/08 06:36:06;;;;;;;12.53;2.23;;;6.80;99.90;;;;;;6197192;23;20188;-93
2022/02/08 06:38:37;;;;;;;5.53;1.73;;;6.80;99.90;;;;;;6192922;23;20180;-93
2022/02/08 06:41:10;;;;;;;11.03;2.33;;;6.80;99.90;;;;;;6193365;23;20191;-92
2022/02/08 06:43:41;;;;;;;9.80;2.10;;;6.80;99.90;;;;;;6192657;23;20183;-92
2022/02/08 06:46:11;;;;;;;8.07;1.80;;;6.80;99.90;;;;;;6192324;23;20176;-93
2022/02/08 06:48:42;;;;;;;7.37;1.80;;;6.80;99.90;;;;;;6191257;23;20215;-93
2022/02/08 06:51:15;;;;;;;6.80;1.90;;;6.80;99.90;;;;;;6191840;23;20220;-93
2022/02/08 06:53:46;;;;;;;10.30;3.23;;;6.80;99.90;;;;;;6191642;23;20202;-93
2022/02/08 06:56:17;;;;;;;6.97;1.80;;;6.70;99.90;;;;;;6191625;23;20194;-95
2022/02/08 06:58:56;;;;;;;12.90;2.10;;;6.70;99.90;;;;;;6191638;23;20181;-93
2022/02/08 07:01:32;;;;;;;9.23;2.07;;;6.70;99.90;;;;;;6192031;23;20197;-93
2022/02/08 07:04:04;;;;;;;9.93;2.20;;;6.70;99.90;;;;;;6191512;23;20187;-92
2022/02/08 07:06:37;;;;;;;10.07;1.90;;;6.70;99.90;;;;;;6189599;23;20184;-92
2022/02/08 07:09:08;;;;;;;5.73;1.57;;;6.70;99.90;;;;;;6192182;23;20169;-93
2022/02/08 07:11:40;;;;;;;7.63;1.77;;;6.70;99.90;;;;;;6191549;23;20169;-93
2022/02/08 07:14:11;;;;;;;10.50;1.83;;;6.60;99.90;;;;;;6190937;23;20181;-91
2022/02/08 07:16:41;;;;;;;10.30;2.60;;;6.60;99.90;;;;;;6190542;23;20249;-93
2022/02/08 07:19:12;;;;;;;10.37;1.80;;;6.60;99.90;;;;;;6192186;23;20480;-92
2022/02/08 07:21:44;;;;;;;6.50;1.53;;;6.60;99.90;;;;;;6195702;23;20200;-91
2022/02/08 07:24:16;;;;;;;11.47;1.90;;;6.70;99.90;;;;;;6168057;23;20197;-92
2022/02/08 07:26:50;;;;;;;9.20;1.60;;;6.70;99.90;;;;;;6192470;23;20173;-91
2022/02/08 07:29:21;;;;;;;5.83;1.57;;;6.70;99.90;;;;;;6194882;23;20176;-92
2022/02/08 07:31:56;;;;;;;7.77;1.90;;;6.70;99.90;;;;;;6194711;23;20181;-93
2022/02/08 07:34:36;;;;;;;10.40;2.10;;;6.70;99.90;;;;;;6192119;23;20177;-93
2022/02/08 07:37:15;;;;;;;8.70;2.23;;;6.60;99.90;;;;;;6191362;23;20219;-91
2022/02/08 07:39:48;;;;;;;7.70;1.83;;;6.70;99.90;;;;;;6192714;23;20204;-93
2022/02/08 07:42:19;;;;;;;5.13;1.80;;;6.70;99.90;;;;;;6191692;23;20247;-91
2022/02/08 07:44:51;;;;;;;6.17;1.80;;;6.70;99.90;;;;;;6192478;23;20169;-93
2022/02/08 07:47:22;;;;;;;10.20;1.73;;;6.70;99.90;;;;;;6193310;23;20176;-92
2022/02/08 07:49:53;;;;;;;11.80;2.00;;;6.70;99.90;;;;;;6212320;23;20157;-92
2022/02/08 07:52:26;;;;;;;7.30;2.13;;;6.70;99.90;;;;;;6211989;23;20169;-94
2022/02/08 07:54:58;;;;;;;6.53;1.80;;;6.70;99.90;;;;;;6209482;23;20192;-91
2022/02/08 07:57:28;;;;;;;7.60;2.37;;;6.70;99.90;;;;;;6207857;23;20188;-94
2022/02/08 07:59:59;;;;;;;7.60;2.17;;;6.70;99.90;;;;;;6175935;23;20177;-93
2022/02/08 08:02:31;;;;;;;8.57;2.60;;;6.70;99.90;;;;;;6193964;23;20209;-93
2022/02/08 08:05:04;;;;;;;11.87;2.03;;;6.70;99.90;;;;;;6192538;23;20171;-94
2022/02/08 08:07:37;;;;;;;10.73;1.80;;;6.60;99.90;;;;;;6192602;23;20169;-92
2022/02/08 08:10:11;;;;;;;11.17;2.00;;;6.60;99.90;;;;;;6192149;23;20169;-93
2022/02/08 08:12:46;;;;;;;15.30;2.23;;;6.60;99.90;;;;;;6191946;23;20161;-93
2022/02/08 08:15:33;;;;;;;6.43;1.67;;;6.50;99.90;;;;;;6191716;23;20563;-92
2022/02/08 08:18:15;;;;;;;6.63;1.50;;;6.50;99.90;;;;;;6197543;23;20173;-93
2022/02/08 08:20:47;;;;;;;14.23;2.43;;;6.40;99.90;;;;;;6191753;23;20201;-92
2022/02/08 08:23:20;;;;;;;7.53;1.90;;;6.40;99.90;;;;;;6194159;23;20524;-93
2022/02/08 08:25:52;;;;;;;9.07;1.80;;;6.40;99.90;;;;;;6198279;23;20165;-91
2022/02/08 08:28:25;;;;;;;11.27;2.43;;;6.40;99.90;;;;;;6173433;23;20239;-92
2022/02/08 08:30:57;;;;;;;11.13;2.43;;;6.40;99.90;;;;;;6201138;23;20169;-92
2022/02/08 08:33:28;;;;;;;8.17;2.47;;;6.50;99.90;;;;;;6190075;23;20192;-92
2022/02/08 08:36:07;;;;;;;14.47;2.23;;;6.40;99.90;;;;;;6190757;23;20169;-92
2022/02/08 08:38:43;;;;;;;13.27;3.27;;;6.50;99.90;;;;;;6190364;23;20177;-92
2022/02/08 08:41:24;;;;;;;13.17;2.63;;;6.40;99.90;;;;;;6190705;23;20303;-93
2022/02/08 08:44:32;;;;;;;9.47;3.10;;;6.40;99.90;;;;;;6190511;23;20260;-91
2022/02/08 08:52:33;;;;;;;12.60;3.07;;;6.60;99.90;;;;;;6191193;23;20207;-91
2022/02/08 08:55:07;;;;;;;14.53;2.97;;;6.60;99.90;;;;;;6191066;23;20228;-92
2022/02/08 08:57:39;;;;;;;10.07;2.33;;;6.60;99.90;;;;;;6189761;23;20648;-93
2022/02/08 09:00:12;;;;;;;12.67;2.73;;;6.60;99.90;;;;;;6193646;23;20231;-92
2022/02/08 09:02:43;;;;;;;14.57;3.43;;;6.60;99.90;;;;;;6194091;23;20185;-93
2022/02/08 09:05:15;;;;;;;10.70;2.80;;;6.60;99.90;;;;;;6191966;23;20173;-92
2022/02/08 09:07:46;;;;;;;12.23;2.70;;;6.60;99.90;;;;;;6191365;23;20184;-92
2022/02/08 09:10:23;;;;;;;9.70;2.67;;;6.60;99.90;;;;;;6190389;23;20693;-93
2022/02/08 09:13:14;;;;;;;8.47;2.30;;;6.60;99.90;;;;;;6190421;23;20187;-92
2022/02/08 09:15:54;;;;;;;12.83;2.47;;;6.60;99.90;;;;;;6192469;23;20196;-94
2022/02/08 09:29:52;;;;;;;15.77;3.00;;;6.50;99.90;;;;;;6191813;23;20188;-93
2022/02/08 09:32:32;;;;;;;6.77;2.10;;;6.50;99.90;;;;;;6197392;23;20215;-92
2022/02/08 09:35:25;;;;;;;8.77;2.63;;;6.50;99.90;;;;;;6170418;23;20175;-92
2022/02/08 09:37:57;;;;;;;10.23;2.27;;;6.40;99.90;;;;;;6207082;23;20157;-92
2022/02/08 09:40:28;;;;;;;8.43;2.20;;;6.40;99.90;;;;;;6196693;23;20176;-93
2022/02/08 09:43:02;;;;;;;12.27;2.50;;;6.40;99.90;;;;;;6194038;23;20176;-93
2022/02/08 09:45:34;;;;;;;10.73;2.37;;;6.30;99.90;;;;;;6192723;23;20171;-93
2022/02/08 09:48:10;;;;;;;9.13;2.80;;;6.30;99.90;;;;;;6191740;23;20187;-93
2022/02/08 09:50:41;;;;;;;11.77;2.77;;;6.30;99.90;;;;;;6192371;23;20169;-93
2022/02/08 09:53:19;;;;;;;11.37;2.73;;;6.30;99.90;;;;;;6192783;23;20185;-91
2022/02/08 09:55:51;;;;;;;5.67;2.00;;;6.20;99.90;;;;;;6194390;23;20232;-93
2022/02/08 09:58:24;;;;;;;7.30;2.47;;;6.00;99.90;;;;;;6192670;23;20189;-93
2022/02/08 10:01:16;;;;;;;11.43;2.50;;;6.00;99.90;;;;;;6193815;23;20176;-92
2022/02/08 10:03:56;;;;;;;8.33;2.67;;;5.90;99.90;;;;;;6194312;23;20200;-94
2022/02/08 10:06:29;;;;;;;7.77;2.97;;;5.80;99.90;;;;;;6230283;22;20244;-92
2022/02/08 10:09:01;;;;;;;9.97;2.23;;;5.80;99.90;;;;;;6243230;23;20157;-93
2022/02/08 10:11:41;;;;;;;8.60;2.20;;;5.70;99.90;;;;;;6241792;23;20180;-93
2022/02/08 10:14:25;;;;;;;7.40;2.20;;;5.70;99.90;;;;;;6238743;23;20178;-93
2022/02/08 10:20:47;;;;;;;7.87;2.27;;;5.60;99.90;;;;;;6224570;23;20168;-91
2022/02/08 10:22:59;;;;;;;12.90;3.00;;;5.50;99.90;;;;;;6222943;23;20194;-92
2022/02/08 10:25:45;;;;;;;13.57;2.63;;;5.40;99.90;;;;;;6222454;23;20175;-93
2022/02/08 10:28:28;;;;;;;8.20;2.70;;;5.30;99.90;;;;;;6222020;23;20181;-92
2022/02/08 10:31:21;;;;;;;13.33;2.93;;;5.30;99.90;;;;;;6223664;23;20168;-92
2022/02/08 10:39:31;;;;;;;12.90;2.40;;;5.30;99.90;;;;;;6180994;23;20634;-92
2022/02/08 10:42:02;;;;;;;8.87;2.50;;;5.20;99.90;;;;;;6224124;23;20203;-93
2022/02/08 10:44:36;;;;;;;6.87;2.37;;;5.20;99.90;;;;;;6221698;23;20651;-92
2022/02/08 10:47:09;;;;;;;10.47;2.40;;;5.20;99.90;;;;;;6221103;23;20192;-93
2022/02/08 10:49:42;;;;;;;14.67;2.70;;;5.20;99.90;;;;;;6221500;23;20215;-93
2022/02/08 10:52:14;;;;;;;12.67;2.40;;;5.30;99.90;;;;;;6220410;23;20235;-92
2022/02/08 10:54:48;;;;;;;7.70;2.30;;;5.40;99.90;;;;;;6223239;23;20169;-93
2022/02/08 10:57:27;;;;;;;12.07;2.90;;;5.40;99.90;;;;;;6221010;23;20176;-93
2022/02/08 11:00:05;;;;;;;13.63;2.77;;;5.50;99.90;;;;;;6222059;23;20175;-93
2022/02/08 11:02:43;;;;;;;13.17;3.47;;;5.50;99.90;;;;;;6222004;23;20243;-93
2022/02/08 11:05:21;;;;;;;8.90;2.40;;;5.60;99.90;;;;;;6220773;23;20692;-94
2022/02/08 11:08:09;;;;;;;9.30;2.23;;;5.60;99.90;;;;;;6220397;23;20199;-90
2022/02/08 11:13:43;;;;;;;8.17;2.10;;;5.70;99.90;;;;;;6162097;23;20203;-92
2022/02/08 11:16:22;;;;;;;8.23;2.47;;;5.70;99.90;;;;;;6220509;23;20184;-93
2022/02/08 11:19:28;;;;;;;5.53;1.87;;;5.70;99.90;;;;;;6220988;23;20199;-93
2022/02/08 11:22:07;;;;;;;9.53;2.27;;;5.60;99.90;;;;;;6221694;23;20175;-93
2022/02/08 11:24:51;;;;;;;7.23;2.10;;;5.60;99.90;;;;;;6224851;23;20201;-93
2022/02/08 11:27:22;;;;;;;6.17;2.00;;;5.60;99.90;;;;;;6221066;23;20204;-95
2022/02/08 11:29:58;;;;;;;10.20;2.40;;;5.50;99.90;;;;;;6236840;23;20171;-93
2022/02/08 11:32:48;;;;;;;8.73;2.50;;;5.50;99.90;;;;;;6238870;23;20172;-94
2022/02/08 11:50:08;;;;;;;8.57;2.27;;;5.60;99.90;;;;;;6239971;23;20183;-94
2022/02/08 11:58:30;;;;;;;8.33;2.60;;;5.60;99.90;;;;;;6233851;23;20294;-93
2022/02/08 12:01:13;;;;;;;8.63;2.40;;;5.60;99.90;;;;;;6238045;23;20180;-93
2022/02/08 12:04:09;;;;;;;9.80;2.37;;;5.70;99.90;;;;;;6222521;23;20176;-93
2022/02/08 12:07:02;;;;;;;9.20;3.63;;;5.70;99.90;;;;;;6221406;23;20184;-92
2022/02/08 12:09:42;;;;;;;8.57;1.90;;;5.70;99.90;;;;;;6222912;23;20179;-92
2022/02/08 12:32:58;;;;;;;8.77;1.97;;;5.90;99.90;;;;;;6239185;23;20225;-92
2022/02/08 12:35:43;;;;;;;6.73;2.27;;;5.90;99.90;;;;;;6193442;23;20183;-90
2022/02/08 12:50:30;;;;;;;10.73;2.40;;;6.00;99.90;;;;;;6222231;23;20168;-93
2022/02/08 12:56:07;;;;;;;9.77;2.50;;;6.00;99.90;;;;;;6217778;23;20266;-91
2022/02/08 13:01:57;;;;;;;10.57;2.60;;;6.10;99.90;;;;;;6224402;23;20184;-92
2022/02/08 13:04:49;;;;;;;11.73;2.93;;;6.10;99.90;;;;;;6223569;23;20510;-93
2022/02/08 13:19:39;;;;;;;10.50;2.93;;;6.20;99.90;;;;;;6241001;23;20187;-93
2022/02/08 14:01:44;;;;;;;8.33;2.47;;;6.30;99.90;;;;;;6237029;23;20222;-93
2022/02/08 14:07:17;;;;;;;7.70;2.30;;;6.30;99.90;;;;;;6241507;23;20208;-92
2022/02/08 14:10:22;;;;;;;6.17;2.30;;;6.30;99.90;;;;;;6227614;23;20248;-94
2022/02/08 14:13:33;;;;;;;8.73;2.20;;;6.30;99.90;;;;;;6223916;23;20183;-94
2022/02/08 14:19:03;;;;;;;7.13;2.00;;;6.30;99.90;;;;;;6222550;23;20627;-92
2022/02/08 14:21:51;;;;;;;14.70;2.30;;;6.30;99.90;;;;;;6223033;23;20168;-94
2022/02/08 14:24:34;;;;;;;9.07;2.70;;;6.30;99.90;;;;;;6223323;23;20168;-93
2022/02/08 14:29:58;;;;;;;8.83;3.57;;;6.30;99.90;;;;;;6200998;23;20238;-93
2022/02/08 14:32:36;;;;;;;9.30;2.37;;;6.30;99.90;;;;;;6223737;23;20570;-93
2022/02/08 14:58:20;;;;;;;8.60;2.20;;;6.00;99.90;;;;;;6223901;23;20182;-92
2022/02/08 15:06:34;;;;;;;8.07;2.20;;;6.00;99.90;;;;;;6225133;23;20259;-93
2022/02/08 15:09:06;;;;;;;13.67;2.67;;;6.00;99.90;;;;;;6222421;23;20168;-92
2022/02/08 15:11:47;;;;;;;7.40;1.90;;;5.90;99.90;;;;;;6222481;23;20246;-92
2022/02/08 15:16:57;;;;;;;8.20;2.37;;;6.00;99.90;;;;;;6232782;22;20199;-93
2022/02/08 15:19:29;;;;;;;8.57;2.30;;;5.90;99.90;;;;;;6230052;23;20183;-93
2022/02/08 15:22:01;;;;;;;5.97;2.43;;;6.00;99.90;;;;;;6234010;23;20508;-92
2022/02/08 15:24:32;;;;;;;10.00;2.33;;;5.90;99.90;;;;;;6233760;23;20183;-92
2022/02/08 15:27:05;;;;;;;6.00;2.47;;;6.00;99.90;;;;;;6207943;23;20188;-93
2022/02/08 15:29:37;;;;;;;8.30;2.80;;;5.90;99.90;;;;;;6232311;23;20169;-92
2022/02/08 15:32:15;;;;;;;8.33;2.53;;;6.00;99.90;;;;;;6235962;23;20195;-93
2022/02/08 15:34:47;;;;;;;7.07;2.20;;;6.00;99.90;;;;;;6232837;23;20168;-93
2022/02/08 15:37:19;;;;;;;8.07;2.17;;;6.00;99.90;;;;;;6224195;23;20223;-93
2022/02/08 15:39:51;;;;;;;9.40;2.60;;;6.00;99.90;;;;;;6222294;23;20188;-92
2022/02/08 15:42:30;;;;;;;7.03;2.13;;;6.00;99.90;;;;;;6230687;23;20169;-91
2022/02/08 15:45:09;;;;;;;9.30;2.83;;;6.10;99.90;;;;;;6220697;23;20224;-91
2022/02/08 15:47:42;;;;;;;6.90;2.00;;;6.00;99.90;;;;;;6226967;23;20554;-93
2022/02/08 15:50:18;;;;;;;7.17;2.30;;;6.00;99.90;;;;;;6237318;23;20226;-93
2022/02/08 15:53:11;;;;;;;4.97;2.00;;;6.00;99.90;;;;;;6207615;23;20182;-93
2022/02/08 15:55:52;;;;;;;12.57;2.40;;;6.10;99.90;;;;;;6236633;23;20165;-93
2022/02/08 16:00:10;;;;;;;6.47;2.37;;;6.10;99.90;;;;;;6234842;23;20252;-93
2022/02/08 16:01:38;;;;;;;10.07;2.73;;;6.10;99.90;;;;;;6235737;22;20313;-92
2022/02/08 16:07:03;;;;;;;8.07;2.73;;;6.20;99.90;;;;;;6237380;23;20207;-92
2022/02/08 16:09:41;;;;;;;10.37;2.70;;;6.20;99.90;;;;;;6237973;23;20173;-93
2022/02/08 16:12:37;;;;;;;8.73;3.13;;;6.20;99.90;;;;;;6238345;23;20164;-92
2022/02/08 16:15:28;;;;;;;8.47;2.80;;;6.30;99.90;;;;;;6237486;23;20167;-92
2022/02/08 16:26:38;;;;;;;9.40;2.83;;;6.40;99.90;;;;;;6217952;23;20199;-92
2022/02/08 16:29:34;;;;;;;8.77;3.10;;;6.50;99.90;;;;;;6241708;23;20240;-92
2022/02/08 16:32:32;;;;;;;9.20;3.50;;;6.60;99.90;;;;;;6240716;23;20173;-92
2022/02/08 16:49:22;;;;;;;10.07;3.07;;;6.90;99.90;;;;;;6224744;23;20188;-92
2022/02/08 16:54:51;;;;;;;9.83;3.00;;;7.10;99.90;;;;;;6225075;23;20253;-92
2022/02/08 16:57:33;;;;;;;7.87;3.67;;;7.00;99.90;;;;;;6225328;23;20168;-93
2022/02/08 17:00:07;;;;;;;11.87;4.00;;;7.10;99.90;;;;;;6228521;23;20176;-93
2022/02/08 17:02:48;;;;;;;11.37;3.50;;;7.10;99.90;;;;;;6235459;23;20255;-93
2022/02/08 17:05:19;;;;;;;10.83;3.13;;;7.20;99.90;;;;;;6238513;22;20235;-92
2022/02/08 17:07:51;;;;;;;8.93;3.50;;;7.20;99.90;;;;;;6241397;23;20192;-92
2022/02/08 17:10:34;;;;;;;8.87;3.37;;;7.30;99.90;;;;;;6241238;23;20172;-92
2022/02/08 17:13:15;;;;;;;9.50;3.47;;;7.30;99.90;;;;;;6237115;22;20183;-90
2022/02/08 17:15:56;;;;;;;6.47;3.43;;;7.40;99.90;;;;;;6211040;23;20167;-92
2022/02/08 17:47:14;;;;;;;9.00;2.80;;;8.20;99.90;;;;;;6183075;23;20257;-92
2022/02/08 17:49:45;;;;;;;6.47;2.97;;;8.20;99.90;;;;;;6183413;23;20161;-91
2022/02/08 17:52:16;;;;;;;7.57;3.23;;;8.30;99.90;;;;;;6181450;23;20188;-92
2022/02/08 17:54:47;;;;;;;7.23;2.90;;;8.40;99.90;;;;;;6182020;23;20178;-92
2022/02/08 17:57:18;;;;;;;5.77;2.67;;;8.40;99.90;;;;;;6180926;23;20212;-93
2022/02/08 17:59:53;;;;;;;7.87;2.87;;;8.40;99.90;;;;;;6179841;23;20161;-93
2022/02/08 18:02:24;;;;;;;5.63;2.77;;;8.50;99.90;;;;;;6179462;23;20165;-93
2022/02/08 18:05:01;;;;;;;7.10;3.50;;;8.50;99.90;;;;;;6178217;23;20177;-93
2022/02/08 18:07:33;;;;;;;6.63;3.63;;;8.50;99.90;;;;;;6154095;23;20198;-93
2022/02/08 18:10:04;;;;;;;11.53;5.60;;;8.50;99.90;;;;;;6176724;23;20197;-92
2022/02/08 18:12:37;;;;;;;12.90;4.73;;;8.50;99.90;;;;;;6173212;23;20454;-92
2022/02/08 18:15:13;;;;;;;13.07;5.67;;;8.40;99.90;;;;;;6174064;23;20178;-90
2022/02/08 18:17:48;;;;;;;13.43;5.57;;;8.30;99.90;;;;;;6175358;23;20173;-91
2022/02/08 18:20:31;;;;;;;12.20;5.43;;;8.20;99.90;;;;;;6179840;23;20238;-92
2022/02/08 18:23:21;;;;;;;10.07;5.10;;;8.20;99.90;;;;;;6157244;23;20158;-93
2022/02/08 19:08:13;;;;;;;7.33;5.97;;;8.60;99.90;;;;;;6208391;23;20192;-93
2022/02/08 19:16:32;;;;;;;7.13;5.93;;;8.90;99.90;;;;;;6199973;23;20192;-93
2022/02/08 19:19:19;;;;;;;8.17;6.23;;;9.00;99.90;;;;;;6196611;23;20196;-92
2022/02/08 19:21:55;;;;;;;6.83;5.53;;;9.10;99.90;;;;;;6201617;23;20169;-93
2022/02/08 19:24:26;;;;;;;6.97;5.47;;;8.90;99.90;;;;;;6212851;23;20168;-93
2022/02/08 19:27:01;;;;;;;7.33;5.70;;;8.90;99.90;;;;;;6211384;23;20225;-93
2022/02/08 19:29:34;;;;;;;8.13;5.53;;;8.90;99.90;;;;;;6212286;23;20157;-93
2022/02/08 19:32:09;;;;;;;7.90;5.47;;;9.00;99.90;;;;;;6211403;23;20164;-93
2022/02/08 19:34:43;;;;;;;8.73;5.73;;;9.10;99.90;;;;;;6178272;23;20172;-93
2022/02/08 19:37:18;;;;;;;7.90;5.37;;;9.10;99.90;;;;;;6209191;23;20204;-92
2022/02/08 19:39:49;;;;;;;7.70;5.87;;;9.10;99.90;;;;;;6210600;23;20184;-93
2022/02/08 19:42:21;;;;;;;6.07;4.77;;;9.00;99.90;;;;;;6210852;23;20194;-92
2022/02/08 19:44:56;;;;;;;7.70;5.70;;;9.00;99.90;;;;;;6210018;23;20176;-92
2022/02/08 19:47:28;;;;;;;9.17;5.37;;;9.00;99.90;;;;;;6210641;23;20184;-93
2022/02/08 19:50:00;;;;;;;7.80;5.83;;;9.00;99.90;;;;;;6202277;23;20177;-93
2022/02/08 19:52:39;;;;;;;6.83;5.40;;;9.10;99.90;;;;;;6171065;23;20165;-93
2022/02/08 19:58:09;;;;;;;6.93;5.33;;;9.10;99.90;;;;;;6186747;23;20188;-93
2022/02/08 20:00:44;;;;;;;7.63;4.90;;;9.00;99.90;;;;;;6194221;23;20267;-94
2022/02/08 20:03:16;;;;;;;7.43;5.67;;;9.00;99.90;;;;;;6194896;23;20172;-92
2022/02/08 20:05:50;;;;;;;6.37;5.00;;;9.10;99.90;;;;;;6195266;23;20173;-92